createdAt,value
2018-09-27T00:01:43.927Z,57.00
2018-09-27T00:04:11.625Z,56.60
2018-09-27T00:06:39.221Z,56.70
2018-09-27T00:09:07.396Z,56.80
2018-09-27T00:11:34.999Z,57.10
2018-09-27T00:14:02.571Z,57.30
2018-09-27T00:16:30.183Z,58.50
2018-09-27T00:18:57.796Z,58.10
2018-09-27T00:21:25.441Z,58.20
2018-09-27T00:23:53.027Z,57.00
2018-09-27T00:26:20.637Z,56.30
2018-09-27T00:28:48.216Z,56.00
2018-09-27T00:31:15.829Z,56.40
2018-09-27T00:33:43.420Z,56.60
2018-09-27T00:36:10.984Z,57.50
2018-09-27T00:38:38.623Z,57.60
2018-09-27T00:41:06.205Z,57.60
2018-09-27T00:43:33.808Z,57.70
2018-09-27T00:46:01.427Z,57.10
2018-09-27T00:48:29.009Z,57.10
2018-09-27T00:50:56.564Z,56.80
2018-09-27T00:53:24.131Z,56.10
2018-09-27T00:55:51.725Z,57.00
2018-09-27T00:58:19.288Z,57.70
2018-09-27T01:00:46.920Z,58.10
2018-09-27T01:03:14.487Z,57.70
2018-09-27T01:05:42.151Z,58.10
2018-09-27T01:08:09.840Z,58.60
2018-09-27T01:10:37.668Z,57.70
2018-09-27T01:13:05.375Z,57.50
2018-09-27T01:15:32.980Z,56.90
2018-09-27T01:18:00.572Z,57.20
2018-09-27T01:20:28.141Z,57.30
2018-09-27T01:22:55.717Z,57.10
2018-09-27T01:25:23.287Z,57.90
2018-09-27T01:27:50.897Z,57.80
2018-09-27T01:30:18.476Z,57.10
2018-09-27T01:32:46.093Z,57.60
2018-09-27T01:35:13.788Z,58.10
2018-09-27T01:37:41.355Z,58.10
2018-09-27T01:40:08.963Z,57.70
2018-09-27T01:42:36.652Z,57.70
2018-09-27T01:45:04.597Z,57.70
2018-09-27T01:47:32.226Z,57.70
2018-09-27T01:49:59.833Z,58.00
2018-09-27T01:52:27.449Z,57.70
2018-09-27T01:54:55.448Z,58.00
2018-09-27T01:57:23.084Z,58.80
2018-09-27T01:59:50.696Z,59.70
2018-09-27T02:02:18.276Z,60.10
2018-09-27T02:04:46.200Z,59.10
2018-09-27T02:07:13.816Z,59.30
2018-09-27T02:09:41.432Z,58.90
2018-09-27T02:12:09.012Z,58.50
2018-09-27T02:14:36.662Z,58.20
2018-09-27T02:17:04.274Z,58.20
2018-09-27T02:19:31.830Z,58.50
2018-09-27T02:21:59.402Z,58.70
2018-09-27T02:24:27.008Z,58.90
2018-09-27T02:26:54.592Z,58.60
2018-09-27T02:29:22.190Z,58.20
2018-09-27T02:31:49.752Z,58.10
2018-09-27T02:34:17.356Z,57.90
2018-09-27T02:36:44.975Z,58.50
2018-09-27T02:39:12.564Z,59.30
2018-09-27T02:41:40.316Z,59.60
2018-09-27T02:44:07.924Z,59.10
2018-09-27T02:46:35.509Z,58.50
2018-09-27T02:49:03.128Z,59.60
2018-09-27T02:51:30.735Z,59.60
2018-09-27T02:53:58.341Z,59.00
2018-09-27T02:56:26.087Z,58.90
2018-09-27T02:58:53.666Z,58.80
2018-09-27T03:01:21.581Z,58.60
2018-09-27T03:03:49.140Z,59.80
2018-09-27T03:06:16.710Z,59.40
2018-09-27T03:08:44.686Z,59.60
2018-09-27T03:11:12.224Z,59.10
2018-09-27T03:13:39.797Z,58.70
2018-09-27T03:16:07.384Z,58.30
2018-09-27T03:18:34.993Z,58.30
2018-09-27T03:21:02.650Z,59.10
2018-09-27T03:23:30.243Z,59.90
2018-09-27T03:25:57.812Z,60.40
2018-09-27T03:28:25.927Z,59.40
2018-09-27T03:30:53.535Z,59.00
2018-09-27T03:35:54.977Z,59.40
2018-09-27T03:38:22.571Z,59.40
2018-09-27T03:40:50.197Z,59.70
2018-09-27T03:43:17.790Z,59.90
2018-09-27T03:45:45.383Z,60.10
2018-09-27T03:48:12.963Z,59.70
2018-09-27T03:50:41.087Z,59.30
2018-09-27T03:53:08.701Z,59.10
2018-09-27T03:55:36.253Z,58.70
2018-09-27T03:58:03.895Z,58.40
2018-09-27T04:00:31.477Z,58.30
2018-09-27T04:02:59.092Z,59.20
2018-09-27T04:05:26.725Z,59.80
2018-09-27T04:07:54.409Z,59.30
2018-09-27T04:10:22.020Z,59.20
2018-09-27T04:12:49.610Z,60.00
2018-09-27T04:15:17.265Z,59.90
2018-09-27T04:17:44.861Z,60.20
2018-09-27T04:20:12.764Z,58.80
2018-09-27T04:22:40.367Z,58.90
2018-09-27T04:25:08.028Z,58.90
2018-09-27T04:27:35.642Z,59.40
2018-09-27T04:30:03.480Z,59.90
2018-09-27T04:32:31.143Z,59.70
2018-09-27T04:34:58.776Z,59.30
2018-09-27T04:37:26.330Z,58.70
2018-09-27T04:39:53.969Z,59.00
2018-09-27T04:42:21.561Z,59.20
2018-09-27T04:44:49.261Z,59.20
2018-09-27T04:47:16.865Z,58.90
2018-09-27T04:49:44.440Z,58.60
2018-09-27T04:52:12.078Z,59.40
2018-09-27T04:54:39.717Z,59.60
2018-09-27T04:57:07.456Z,60.00
2018-09-27T04:59:35.051Z,60.10
2018-09-27T05:02:02.726Z,60.10
2018-09-27T05:04:30.395Z,60.10
2018-09-27T05:06:58.000Z,59.20
2018-09-27T05:09:25.605Z,58.60
2018-09-27T05:11:53.252Z,58.90
2018-09-27T05:14:20.885Z,59.30
2018-09-27T05:16:48.559Z,60.10
2018-09-27T05:19:16.210Z,60.60
2018-09-27T05:21:43.907Z,60.10
2018-09-27T05:24:11.504Z,60.00
2018-09-27T05:26:39.155Z,61.00
2018-09-27T05:29:06.805Z,61.10
2018-09-27T05:31:34.473Z,61.80
2018-09-27T05:34:02.131Z,62.00
2018-09-27T05:36:29.812Z,61.60
2018-09-27T05:38:57.484Z,61.60
2018-09-27T05:41:25.205Z,60.80
2018-09-27T05:43:52.849Z,60.50
2018-09-27T05:46:20.550Z,60.60
2018-09-27T05:48:48.235Z,60.40
2018-09-27T05:51:15.888Z,60.30
2018-09-27T05:53:43.551Z,60.60
2018-09-27T05:56:11.248Z,60.80
2018-09-27T05:58:38.956Z,60.90
2018-09-27T06:01:06.718Z,61.40
2018-09-27T06:03:34.360Z,62.10
2018-09-27T06:06:02.001Z,62.00
2018-09-27T06:08:29.716Z,62.60
2018-09-27T06:10:57.380Z,62.60
2018-09-27T06:13:25.041Z,62.40
2018-09-27T06:15:52.668Z,62.50
2018-09-27T06:18:20.300Z,62.60
2018-09-27T06:20:47.924Z,62.50
2018-09-27T06:23:15.670Z,62.90
2018-09-27T06:25:43.512Z,63.40
2018-09-27T06:28:11.148Z,64.30
2018-09-27T06:30:38.791Z,64.90
2018-09-27T06:33:06.449Z,64.80
2018-09-27T06:35:34.199Z,64.90
2018-09-27T06:38:01.824Z,65.20
2018-09-27T06:40:29.461Z,65.40
2018-09-27T06:42:57.149Z,65.40
2018-09-27T06:45:24.754Z,65.00
2018-09-27T06:47:52.670Z,65.70
2018-09-27T06:50:20.312Z,67.00
2018-09-27T06:52:48.184Z,67.30
2018-09-27T06:55:15.987Z,67.30
2018-09-27T06:57:43.549Z,67.50
2018-09-27T07:00:11.204Z,67.70
2018-09-27T07:02:38.909Z,68.30
2018-09-27T07:05:06.668Z,68.90
2018-09-27T07:07:34.382Z,69.10
2018-09-27T07:10:02.053Z,68.90
2018-09-27T07:12:29.865Z,69.30
2018-09-27T07:14:57.463Z,69.80
2018-09-27T07:17:25.087Z,70.00
2018-09-27T07:19:52.712Z,70.30
2018-09-27T07:22:20.363Z,70.40
2018-09-27T07:24:48.007Z,70.40
2018-09-27T07:27:15.672Z,70.80
2018-09-27T07:29:43.303Z,71.20
2018-09-27T07:32:10.967Z,71.50
2018-09-27T07:34:38.620Z,71.80
2018-09-27T07:37:06.367Z,71.40
2018-09-27T07:39:34.101Z,71.30
2018-09-27T07:42:01.707Z,71.60
2018-09-27T07:44:29.427Z,71.30
2018-09-27T07:46:57.032Z,71.30
2018-09-27T07:49:24.722Z,71.20
2018-09-27T07:51:52.329Z,70.70
2018-09-27T07:54:19.964Z,70.40
2018-09-27T07:56:48.108Z,70.10
2018-09-27T07:59:15.784Z,69.80
2018-09-27T08:01:43.441Z,69.60
2018-09-27T08:04:11.152Z,69.60
2018-09-27T08:06:38.753Z,69.40
2018-09-27T08:09:07.407Z,69.90
2018-09-27T08:11:35.395Z,69.70
2018-09-27T08:14:02.975Z,69.90
2018-09-27T08:16:30.671Z,69.50
2018-09-27T08:18:58.320Z,69.70
2018-09-27T08:21:25.980Z,70.00
2018-09-27T08:23:53.646Z,69.40
2018-09-27T08:26:21.301Z,69.10
2018-09-27T08:28:48.932Z,69.30
2018-09-27T08:31:16.670Z,69.00
2018-09-27T08:33:44.311Z,68.40
2018-09-27T08:36:11.960Z,68.00
2018-09-27T08:38:39.635Z,67.00
2018-09-27T08:41:07.261Z,66.00
2018-09-27T08:43:34.893Z,65.10
2018-09-27T08:46:02.550Z,64.70
2018-09-27T08:48:30.245Z,64.40
2018-09-27T08:50:58.241Z,64.40
2018-09-27T08:53:25.901Z,63.70
2018-09-27T08:55:53.572Z,62.70
2018-09-27T08:58:21.534Z,61.50
2018-09-27T09:00:49.159Z,61.30
2018-09-27T09:03:16.855Z,61.00
2018-09-27T09:05:44.620Z,60.30
2018-09-27T09:08:12.728Z,59.60
2018-09-27T09:10:40.360Z,59.30
2018-09-27T09:13:08.278Z,58.90
2018-09-27T09:15:35.899Z,58.50
2018-09-27T09:18:03.577Z,58.10
2018-09-27T09:20:31.264Z,57.30
2018-09-27T09:22:58.895Z,56.80
2018-09-27T09:25:26.728Z,56.70
2018-09-27T09:27:54.596Z,56.60
2018-09-27T09:30:22.240Z,56.00
2018-09-27T09:32:49.862Z,55.40
2018-09-27T09:35:17.684Z,54.90
2018-09-27T09:37:45.391Z,54.80
2018-09-27T09:40:13.057Z,54.00
2018-09-27T09:42:40.679Z,53.50
2018-09-27T09:45:08.381Z,53.50
2018-09-27T09:47:36.007Z,52.70
2018-09-27T09:50:03.983Z,52.60
2018-09-27T09:52:31.610Z,51.90
2018-09-27T09:54:59.347Z,51.60
2018-09-27T09:57:27.016Z,51.00
2018-09-27T09:59:54.665Z,50.60
2018-09-27T10:02:22.364Z,49.80
2018-09-27T10:04:50.298Z,49.00
2018-09-27T10:07:17.941Z,48.10
2018-09-27T10:09:45.855Z,48.40
2018-09-27T10:12:13.480Z,47.20
2018-09-27T10:14:41.124Z,47.50
2018-09-27T10:17:08.783Z,46.70
2018-09-27T10:19:36.516Z,47.10
2018-09-27T10:22:04.214Z,46.40
2018-09-27T10:24:32.191Z,46.30
2018-09-27T10:26:59.820Z,45.70
2018-09-27T10:29:27.473Z,44.20
2018-09-27T10:31:55.099Z,43.80
2018-09-27T10:34:23.224Z,44.00
2018-09-27T10:36:50.835Z,42.60
2018-09-27T10:39:19.956Z,43.60
2018-09-27T10:41:47.768Z,42.90
2018-09-27T10:44:15.412Z,43.20
2018-09-27T10:46:42.972Z,42.60
2018-09-27T10:49:10.567Z,42.20
2018-09-27T10:51:38.160Z,41.70
2018-09-27T10:54:05.880Z,41.20
2018-09-27T10:56:33.484Z,41.70
2018-09-27T10:59:01.120Z,43.00
2018-09-27T11:01:28.700Z,42.50
2018-09-27T11:03:56.312Z,41.80
2018-09-27T11:06:24.153Z,41.50
2018-09-27T11:08:51.715Z,40.90
2018-09-27T11:11:19.319Z,40.30
2018-09-27T11:13:46.909Z,40.10
2018-09-27T11:16:14.491Z,40.20
2018-09-27T11:18:42.100Z,40.10
2018-09-27T11:21:09.680Z,40.10
2018-09-27T11:23:37.256Z,40.40
2018-09-27T11:26:04.876Z,39.40
2018-09-27T11:28:38.173Z,38.80
2018-09-27T11:31:11.420Z,39.70
2018-09-27T11:33:38.984Z,39.00
2018-09-27T11:36:06.692Z,39.10
2018-09-27T11:38:35.548Z,38.80
2018-09-27T11:41:03.148Z,38.30
2018-09-27T11:43:30.926Z,37.80
2018-09-27T11:45:58.554Z,36.90
2018-09-27T11:48:26.157Z,36.30
2018-09-27T11:50:53.738Z,35.50
2018-09-27T11:53:21.320Z,34.90
2018-09-27T11:55:49.193Z,35.80
2018-09-27T11:58:16.952Z,35.80
2018-09-27T12:00:44.885Z,35.80
2018-09-27T12:03:12.440Z,35.20
2018-09-27T12:05:40.005Z,34.80
2018-09-27T12:08:07.667Z,35.30
2018-09-27T12:10:35.243Z,36.10
2018-09-27T12:13:03.033Z,36.20
2018-09-27T12:15:30.718Z,36.30
2018-09-27T12:17:58.616Z,36.20
2018-09-27T12:20:26.188Z,35.80
2018-09-27T12:22:53.840Z,35.10
2018-09-27T12:25:21.445Z,34.90
2018-09-27T12:27:49.020Z,34.40
2018-09-27T12:30:16.615Z,34.90
2018-09-27T12:32:44.157Z,34.20
2018-09-27T12:35:11.713Z,34.10
2018-09-27T12:37:39.335Z,34.30
2018-09-27T12:40:06.953Z,34.00
2018-09-27T12:42:34.686Z,33.40
2018-09-27T12:45:02.323Z,33.10
2018-09-27T12:47:29.836Z,32.70
2018-09-27T12:49:57.467Z,33.00
2018-09-27T12:52:25.296Z,32.70
2018-09-27T12:54:52.810Z,31.70
2018-09-27T12:57:20.387Z,31.70
2018-09-27T12:59:48.016Z,32.10
2018-09-27T13:02:15.758Z,32.00
2018-09-27T13:04:43.298Z,32.30
2018-09-27T13:07:10.999Z,31.80
2018-09-27T13:09:38.675Z,30.80
2018-09-27T13:12:06.248Z,30.60
2018-09-27T13:14:33.895Z,30.50
2018-09-27T13:17:01.528Z,30.30
2018-09-27T13:19:29.191Z,31.10
2018-09-27T13:21:56.744Z,29.30
2018-09-27T13:24:24.501Z,29.20
2018-09-27T13:26:52.101Z,29.80
2018-09-27T13:29:19.875Z,30.70
2018-09-27T13:31:47.491Z,29.60
2018-09-27T13:34:15.040Z,29.30
2018-09-27T13:36:42.651Z,28.90
2018-09-27T13:39:10.593Z,28.70
2018-09-27T13:41:39.361Z,28.50
2018-09-27T13:44:07.113Z,28.80
2018-09-27T13:46:35.493Z,29.10
2018-09-27T13:49:03.143Z,29.20
2018-09-27T13:51:30.727Z,28.70
2018-09-27T13:53:58.363Z,30.60
2018-09-27T13:56:25.941Z,31.40
2018-09-27T13:58:53.544Z,31.70
2018-09-27T14:01:21.285Z,32.20
2018-09-27T14:03:48.896Z,34.00
2018-09-27T14:06:16.466Z,35.00
2018-09-27T14:08:44.061Z,34.70
2018-09-27T14:11:11.688Z,35.30
2018-09-27T14:13:39.317Z,35.10
2018-09-27T14:16:06.958Z,34.30
2018-09-27T14:18:34.581Z,34.60
2018-09-27T14:21:02.176Z,34.50
2018-09-27T14:23:29.866Z,34.40
2018-09-27T14:25:57.471Z,34.10
2018-09-27T14:28:25.093Z,34.20
2018-09-27T14:30:52.992Z,35.50
2018-09-27T14:33:20.644Z,35.80
2018-09-27T14:35:48.254Z,35.40
2018-09-27T14:38:15.885Z,35.70
2018-09-27T14:40:43.532Z,35.90
2018-09-27T14:43:11.092Z,35.80
2018-09-27T14:45:38.717Z,35.10
2018-09-27T14:48:06.339Z,35.30
2018-09-27T14:50:33.936Z,35.10
2018-09-27T14:53:01.505Z,35.40
2018-09-27T14:55:29.136Z,35.30
2018-09-27T14:57:56.732Z,34.80
2018-09-27T15:00:24.305Z,35.20
2018-09-27T15:02:51.926Z,34.60
2018-09-27T15:05:19.503Z,34.80
2018-09-27T15:07:47.114Z,35.10
2018-09-27T15:10:14.765Z,34.70
2018-09-27T15:12:42.490Z,34.70
2018-09-27T15:15:10.038Z,34.90
2018-09-27T15:17:38.114Z,34.80
2018-09-27T15:20:05.889Z,35.50
2018-09-27T15:22:33.607Z,34.80
2018-09-27T15:25:01.165Z,34.80
2018-09-27T15:27:28.762Z,34.30
2018-09-27T15:29:56.339Z,34.20
2018-09-27T15:32:24.173Z,34.00
2018-09-27T15:34:51.892Z,34.20
2018-09-27T15:37:19.449Z,34.00
2018-09-27T15:39:47.042Z,34.00
2018-09-27T15:42:14.625Z,33.90
2018-09-27T15:44:42.191Z,34.10
2018-09-27T15:47:09.811Z,33.80
2018-09-27T15:49:37.428Z,34.50
2018-09-27T15:52:05.149Z,33.70
2018-09-27T15:54:32.745Z,33.90
2018-09-27T15:57:00.377Z,34.20
2018-09-27T15:59:27.988Z,34.50
2018-09-27T16:01:55.779Z,34.30
2018-09-27T16:04:23.408Z,34.10
2018-09-27T16:06:51.010Z,34.40
2018-09-27T16:09:18.623Z,34.00
2018-09-27T16:11:46.229Z,33.90
2018-09-27T16:14:13.810Z,34.10
2018-09-27T16:16:41.481Z,34.20
2018-09-27T16:19:09.212Z,34.80
2018-09-27T16:21:36.829Z,34.50
2018-09-27T16:24:04.439Z,34.00
2018-09-27T16:26:32.085Z,33.90
2018-09-27T16:29:00.017Z,33.90
2018-09-27T16:31:27.584Z,34.10
2018-09-27T16:33:55.177Z,34.50
2018-09-27T16:36:22.749Z,34.80
2018-09-27T16:38:50.369Z,35.10
2018-09-27T16:41:17.984Z,36.10
2018-09-27T16:43:45.664Z,35.80
2018-09-27T16:46:13.263Z,37.30
2018-09-27T16:48:40.880Z,37.70
2018-09-27T16:51:08.506Z,38.70
2018-09-27T16:53:36.168Z,39.50
2018-09-27T16:56:03.782Z,39.70
2018-09-27T16:58:31.490Z,39.70
2018-09-27T17:00:59.056Z,39.90
2018-09-27T17:03:26.618Z,40.50
2018-09-27T17:05:54.218Z,40.70
2018-09-27T17:08:21.812Z,41.00
2018-09-27T17:10:49.376Z,41.10
2018-09-27T17:13:16.991Z,41.40
2018-09-27T17:15:44.579Z,42.00
2018-09-27T17:18:12.469Z,42.20
2018-09-27T17:20:40.107Z,42.50
2018-09-27T17:23:07.665Z,42.90
2018-09-27T17:25:35.293Z,43.00
2018-09-27T17:28:02.908Z,43.50
2018-09-27T17:30:30.468Z,44.10
2018-09-27T17:32:58.098Z,44.70
2018-09-27T17:35:25.682Z,45.40
2018-09-27T17:37:53.278Z,45.90
2018-09-27T17:40:21.218Z,46.20
2018-09-27T17:42:48.886Z,45.90
2018-09-27T17:45:16.835Z,46.40
2018-09-27T17:47:44.444Z,46.50
2018-09-27T17:50:12.135Z,46.50
2018-09-27T17:52:39.786Z,46.60
2018-09-27T17:55:07.899Z,46.40
2018-09-27T17:57:36.544Z,46.50
2018-09-27T18:00:04.314Z,46.70
2018-09-27T18:02:31.958Z,46.50
2018-09-27T18:04:59.549Z,46.50
2018-09-27T18:07:27.203Z,46.50
2018-09-27T18:09:54.820Z,46.80
2018-09-27T18:12:22.451Z,47.10
2018-09-27T18:14:50.097Z,46.50
2018-09-27T18:17:17.878Z,46.70
2018-09-27T18:19:45.507Z,47.30
2018-09-27T18:22:13.067Z,47.30
2018-09-27T18:24:40.675Z,47.50
2018-09-27T18:27:08.283Z,47.80
2018-09-27T18:29:35.926Z,48.10
2018-09-27T18:32:03.520Z,48.40
2018-09-27T18:34:31.202Z,48.80
2018-09-27T18:36:58.792Z,48.90
2018-09-27T18:39:26.430Z,48.90
2018-09-27T18:41:54.026Z,49.00
2018-09-27T18:44:21.611Z,48.90
2018-09-27T18:46:49.206Z,49.10
2018-09-27T18:49:16.872Z,49.30
2018-09-27T18:51:44.477Z,49.30
2018-09-27T18:54:12.048Z,50.00
2018-09-27T18:56:39.609Z,49.80
2018-09-27T18:59:08.300Z,49.50
2018-09-27T19:01:35.854Z,49.50
2018-09-27T19:04:03.488Z,50.00
2018-09-27T19:06:31.075Z,49.90
2018-09-27T19:08:58.799Z,49.70
2018-09-27T19:11:26.398Z,50.20
2018-09-27T19:13:54.294Z,50.10
2018-09-27T19:16:21.885Z,50.40
2018-09-27T19:18:49.456Z,50.70
2018-09-27T19:21:17.030Z,50.20
2018-09-27T19:23:44.663Z,50.40
2018-09-27T19:26:12.242Z,50.80
2018-09-27T19:28:39.848Z,49.70
2018-09-27T19:31:07.472Z,50.10
2018-09-27T19:33:35.067Z,50.10
2018-09-27T19:36:02.673Z,49.40
2018-09-27T19:38:30.338Z,49.10
2018-09-27T19:40:58.172Z,49.70
2018-09-27T19:43:25.813Z,50.40
2018-09-27T19:45:53.412Z,50.50
2018-09-27T19:48:21.033Z,49.80
2018-09-27T19:50:48.636Z,50.00
2018-09-27T19:53:16.232Z,50.20
2018-09-27T19:55:43.844Z,50.10
2018-09-27T19:58:11.510Z,50.70
2018-09-27T20:00:39.113Z,51.20
2018-09-27T20:03:06.696Z,51.50
2018-09-27T20:05:34.287Z,51.70
2018-09-27T20:08:01.872Z,51.20
2018-09-27T20:10:29.563Z,51.00
2018-09-27T20:12:57.166Z,50.50
2018-09-27T20:15:24.760Z,50.70
2018-09-27T20:17:52.899Z,50.40
2018-09-27T20:20:20.503Z,50.30
2018-09-27T20:22:48.348Z,50.40
2018-09-27T20:25:15.960Z,51.20
2018-09-27T20:27:43.514Z,51.50
2018-09-27T20:30:11.118Z,51.60
2018-09-27T20:32:38.661Z,51.00
2018-09-27T20:35:06.275Z,51.80
2018-09-27T20:37:33.864Z,52.00
2018-09-27T20:40:01.490Z,51.80
2018-09-27T20:42:29.336Z,52.00
2018-09-27T20:44:56.993Z,51.60
2018-09-27T20:47:25.060Z,52.30
2018-09-27T20:49:52.689Z,52.80
2018-09-27T20:52:20.322Z,52.70
2018-09-27T20:54:47.960Z,52.40
2018-09-27T20:57:18.842Z,52.30
2018-09-27T20:59:46.493Z,51.30
2018-09-27T21:02:14.129Z,51.80
2018-09-27T21:04:41.749Z,52.30
2018-09-27T21:07:09.828Z,52.90
2018-09-27T21:09:37.410Z,53.20
2018-09-27T21:12:05.135Z,52.90
2018-09-27T21:14:32.825Z,52.10
2018-09-27T21:17:00.698Z,51.80
2018-09-27T21:19:28.365Z,51.60
2018-09-27T21:21:56.021Z,51.80
2018-09-27T21:24:23.628Z,51.70
2018-09-27T21:26:51.268Z,52.40
2018-09-27T21:29:18.853Z,52.50
2018-09-27T21:31:46.500Z,53.10
2018-09-27T21:34:14.144Z,53.50
2018-09-27T21:36:41.821Z,53.70
2018-09-27T21:39:09.449Z,53.40
2018-09-27T21:41:37.116Z,53.10
2018-09-27T21:44:04.813Z,53.10
2018-09-27T21:46:32.457Z,53.30
2018-09-27T21:49:00.090Z,53.30
2018-09-27T21:51:27.713Z,53.50
2018-09-27T21:53:55.288Z,53.30
2018-09-27T21:56:23.120Z,53.60
2018-09-27T21:58:50.777Z,53.80
2018-09-27T22:01:18.652Z,53.60
2018-09-27T22:03:46.351Z,53.00
2018-09-27T22:06:13.949Z,53.80
2018-09-27T22:08:41.657Z,53.30
2018-09-27T22:11:09.384Z,53.60
2018-09-27T22:13:37.044Z,54.70
2018-09-27T22:16:04.716Z,54.00
2018-09-27T22:18:32.346Z,54.20
2018-09-27T22:20:59.990Z,54.60
2018-09-27T22:23:27.805Z,54.80
2018-09-27T22:25:55.644Z,54.80
2018-09-27T22:28:23.267Z,54.00
2018-09-27T22:30:50.921Z,53.50
2018-09-27T22:33:18.553Z,53.80
2018-09-27T22:35:46.193Z,54.20
2018-09-27T22:38:13.795Z,54.70
2018-09-27T22:40:41.653Z,55.00
2018-09-27T22:43:09.340Z,54.90
2018-09-27T22:45:36.942Z,54.40
2018-09-27T22:48:04.609Z,55.00
2018-09-27T22:50:32.221Z,55.50
2018-09-27T22:52:59.856Z,56.30
2018-09-27T22:55:27.519Z,56.40
2018-09-27T22:57:55.876Z,55.70
2018-09-27T23:00:23.488Z,56.10
2018-09-27T23:02:51.441Z,56.80
2018-09-27T23:05:19.107Z,56.00
2018-09-27T23:07:46.765Z,56.20
2018-09-27T23:10:14.406Z,57.10
2018-09-27T23:12:42.049Z,56.10
2018-09-27T23:15:09.638Z,55.80
2018-09-27T23:17:37.277Z,56.40
2018-09-27T23:20:06.093Z,57.00
2018-09-27T23:22:33.716Z,57.10
2018-09-27T23:25:01.364Z,57.80
2018-09-27T23:27:29.012Z,57.80
2018-09-27T23:29:56.632Z,57.70
2018-09-27T23:32:24.601Z,57.20
2018-09-27T23:34:52.190Z,57.30
2018-09-27T23:37:19.812Z,57.40
2018-09-27T23:39:47.423Z,57.00
2018-09-27T23:42:15.160Z,56.70
2018-09-27T23:44:42.793Z,57.40
2018-09-27T23:47:10.503Z,57.00
2018-09-27T23:49:38.152Z,57.60
2018-09-27T23:52:05.852Z,58.00
2018-09-27T23:54:33.630Z,58.10
2018-09-27T23:57:01.233Z,58.30
2018-09-27T23:59:28.907Z,58.40
